sensor_id;sensor_type;location;lat;lon;timestamp;pressure;altitude;pressure_sealevel;temperature;humidity
37904;BME280;23738;50.422;18.758;2023-05-17T00:01:27;98184.55;;;12.77;80.69
37904;BME280;23738;50.422;18.758;2023-05-17T00:03:55;98190.10;;;12.76;80.66
37904;BME280;23738;50.422;18.758;2023-05-17T00:06:22;98186.45;;;12.77;80.80
37904;BME280;23738;50.422;18.758;2023-05-17T00:08:49;98190.67;;;12.83;80.84
37904;BME280;23738;50.422;18.758;2023-05-17T00:11:17;98187.27;;;12.87;81.00
37904;BME280;23738;50.422;18.758;2023-05-17T00:13:45;98184.02;;;12.87;81.14
37904;BME280;23738;50.422;18.758;2023-05-17T00:16:12;98186.07;;;12.83;80.84
37904;BME280;23738;50.422;18.758;2023-05-17T00:18:39;98191.44;;;12.86;80.91
37904;BME280;23738;50.422;18.758;2023-05-17T00:21:27;98194.39;;;12.89;80.99
37904;BME280;23738;50.422;18.758;2023-05-17T00:24:15;98198.58;;;12.92;80.86
37904;BME280;23738;50.422;18.758;2023-05-17T00:26:42;98199.88;;;12.91;80.90
37904;BME280;23738;50.422;18.758;2023-05-17T00:29:09;98192.32;;;12.87;80.94
37904;BME280;23738;50.422;18.758;2023-05-17T00:31:37;98192.98;;;12.82;81.02
37904;BME280;23738;50.422;18.758;2023-05-17T00:34:24;98199.77;;;12.77;80.99
37904;BME280;23738;50.422;18.758;2023-05-17T00:36:52;98191.98;;;12.77;80.97
37904;BME280;23738;50.422;18.758;2023-05-17T00:39:19;98200.17;;;12.80;81.11
37904;BME280;23738;50.422;18.758;2023-05-17T00:41:47;98201.62;;;12.80;81.37
37904;BME280;23738;50.422;18.758;2023-05-17T00:44:15;98201.61;;;12.78;81.48
37904;BME280;23738;50.422;18.758;2023-05-17T00:46:42;98198.73;;;12.74;81.46
37904;BME280;23738;50.422;18.758;2023-05-17T00:49:09;98198.15;;;12.67;81.46
37904;BME280;23738;50.422;18.758;2023-05-17T00:51:37;98195.86;;;12.64;81.74
37904;BME280;23738;50.422;18.758;2023-05-17T00:54:05;98193.79;;;12.63;82.06
37904;BME280;23738;50.422;18.758;2023-05-17T00:56:33;98196.21;;;12.58;81.85
37904;BME280;23738;50.422;18.758;2023-05-17T00:59:00;98198.08;;;12.54;81.93
37904;BME280;23738;50.422;18.758;2023-05-17T01:01:28;98199.20;;;12.52;82.28
37904;BME280;23738;50.422;18.758;2023-05-17T01:03:56;98195.89;;;12.50;82.18
37904;BME280;23738;50.422;18.758;2023-05-17T01:06:23;98187.02;;;12.44;82.26
37904;BME280;23738;50.422;18.758;2023-05-17T01:08:51;98181.44;;;12.41;82.39
37904;BME280;23738;50.422;18.758;2023-05-17T01:11:27;98174.45;;;12.41;82.38
37904;BME280;23738;50.422;18.758;2023-05-17T01:14:04;98183.84;;;12.42;82.26
37904;BME280;23738;50.422;18.758;2023-05-17T01:16:39;98186.36;;;12.44;82.42
37904;BME280;23738;50.422;18.758;2023-05-17T01:19:18;98180.91;;;12.39;82.54
37904;BME280;23738;50.422;18.758;2023-05-17T01:22:01;98179.13;;;12.35;82.64
37904;BME280;23738;50.422;18.758;2023-05-17T01:24:41;98174.87;;;12.32;82.83
37904;BME280;23738;50.422;18.758;2023-05-17T01:27:15;98177.88;;;12.34;82.58
37904;BME280;23738;50.422;18.758;2023-05-17T01:29:44;98178.23;;;12.37;83.06
37904;BME280;23738;50.422;18.758;2023-05-17T01:32:13;98175.35;;;12.37;83.26
37904;BME280;23738;50.422;18.758;2023-05-17T01:34:41;98175.59;;;12.36;83.34
37904;BME280;23738;50.422;18.758;2023-05-17T01:37:09;98181.83;;;12.37;83.72
37904;BME280;23738;50.422;18.758;2023-05-17T01:39:37;98176.79;;;12.31;83.88
37904;BME280;23738;50.422;18.758;2023-05-17T01:42:10;98176.52;;;12.26;83.70
37904;BME280;23738;50.422;18.758;2023-05-17T01:44:44;98169.06;;;12.21;83.74
37904;BME280;23738;50.422;18.758;2023-05-17T01:47:17;98168.58;;;12.18;84.40
37904;BME280;23738;50.422;18.758;2023-05-17T01:50:08;98167.76;;;12.13;84.22
37904;BME280;23738;50.422;18.758;2023-05-17T01:52:58;98160.70;;;12.10;84.02
37904;BME280;23738;50.422;18.758;2023-05-17T01:55:43;98163.98;;;12.07;84.00
37904;BME280;23738;50.422;18.758;2023-05-17T01:58:14;98170.65;;;12.04;84.19
37904;BME280;23738;50.422;18.758;2023-05-17T02:00:43;98180.88;;;12.04;84.17
37904;BME280;23738;50.422;18.758;2023-05-17T02:03:13;98182.52;;;12.04;84.31
37904;BME280;23738;50.422;18.758;2023-05-17T02:05:43;98176.64;;;12.00;84.30
37904;BME280;23738;50.422;18.758;2023-05-17T02:08:10;98188.12;;;11.99;84.77
37904;BME280;23738;50.422;18.758;2023-05-17T02:10:37;98192.50;;;11.92;84.90
37904;BME280;23738;50.422;18.758;2023-05-17T02:13:05;98197.59;;;11.88;84.55
37904;BME280;23738;50.422;18.758;2023-05-17T02:15:32;98196.88;;;11.86;84.84
37904;BME280;23738;50.422;18.758;2023-05-17T02:17:59;98197.03;;;11.86;84.79
37904;BME280;23738;50.422;18.758;2023-05-17T02:20:27;98196.95;;;11.85;84.67
37904;BME280;23738;50.422;18.758;2023-05-17T02:22:54;98200.83;;;11.83;85.91
37904;BME280;23738;50.422;18.758;2023-05-17T02:25:21;98211.14;;;11.77;85.41
37904;BME280;23738;50.422;18.758;2023-05-17T02:27:49;98219.56;;;11.74;85.33
37904;BME280;23738;50.422;18.758;2023-05-17T02:30:16;98221.05;;;11.71;84.89
37904;BME280;23738;50.422;18.758;2023-05-17T02:32:44;98220.41;;;11.69;84.91
37904;BME280;23738;50.422;18.758;2023-05-17T02:35:11;98228.54;;;11.71;85.60
37904;BME280;23738;50.422;18.758;2023-05-17T02:37:39;98229.20;;;11.63;85.21
37904;BME280;23738;50.422;18.758;2023-05-17T02:40:08;98227.42;;;11.60;85.49
37904;BME280;23738;50.422;18.758;2023-05-17T02:42:36;98222.45;;;11.54;86.15
37904;BME280;23738;50.422;18.758;2023-05-17T02:45:05;98227.69;;;11.49;85.89
37904;BME280;23738;50.422;18.758;2023-05-17T02:47:52;98217.55;;;11.44;86.23
37904;BME280;23738;50.422;18.758;2023-05-17T02:51:19;98217.68;;;11.42;85.45
37904;BME280;23738;50.422;18.758;2023-05-17T02:54:46;98212.25;;;11.40;85.88
37904;BME280;23738;50.422;18.758;2023-05-17T02:58:14;98213.36;;;11.36;85.67
37904;BME280;23738;50.422;18.758;2023-05-17T03:01:41;98208.55;;;11.30;86.27
37904;BME280;23738;50.422;18.758;2023-05-17T03:04:48;98204.70;;;11.27;85.75
37904;BME280;23738;50.422;18.758;2023-05-17T03:08:15;98205.95;;;11.27;85.71
37904;BME280;23738;50.422;18.758;2023-05-17T03:11:42;98215.41;;;11.25;85.78
37904;BME280;23738;50.422;18.758;2023-05-17T03:14:30;98224.06;;;11.20;85.92
37904;BME280;23738;50.422;18.758;2023-05-17T03:17:37;98229.36;;;11.19;86.37
37904;BME280;23738;50.422;18.758;2023-05-17T03:20:25;98232.66;;;11.17;86.17
37904;BME280;23738;50.422;18.758;2023-05-17T03:23:53;98232.32;;;11.19;85.90
37904;BME280;23738;50.422;18.758;2023-05-17T03:27:20;98227.31;;;11.18;86.54
37904;BME280;23738;50.422;18.758;2023-05-17T03:30:47;98232.66;;;11.17;86.91
37904;BME280;23738;50.422;18.758;2023-05-17T03:34:14;98237.10;;;11.11;86.55
37904;BME280;23738;50.422;18.758;2023-05-17T03:37:43;98247.38;;;11.06;86.29
37904;BME280;23738;50.422;18.758;2023-05-17T03:41:11;98248.11;;;11.09;86.15
37904;BME280;23738;50.422;18.758;2023-05-17T03:44:34;98252.20;;;11.10;86.27
37904;BME280;23738;50.422;18.758;2023-05-17T03:47:01;98252.34;;;11.08;87.09
37904;BME280;23738;50.422;18.758;2023-05-17T03:49:28;98243.36;;;11.04;87.05
37904;BME280;23738;50.422;18.758;2023-05-17T03:52:16;98242.48;;;10.99;87.07
37904;BME280;23738;50.422;18.758;2023-05-17T03:54:43;98245.80;;;11.02;86.53
37904;BME280;23738;50.422;18.758;2023-05-17T03:57:11;98256.33;;;11.03;86.54
37904;BME280;23738;50.422;18.758;2023-05-17T03:59:38;98267.54;;;11.10;86.61
37904;BME280;23738;50.422;18.758;2023-05-17T04:02:06;98269.88;;;11.16;86.56
37904;BME280;23738;50.422;18.758;2023-05-17T04:04:33;98276.92;;;11.14;86.49
37904;BME280;23738;50.422;18.758;2023-05-17T04:07:00;98280.67;;;11.09;86.34
37904;BME280;23738;50.422;18.758;2023-05-17T04:09:30;98286.60;;;11.11;86.63
37904;BME280;23738;50.422;18.758;2023-05-17T04:11:57;98291.13;;;11.09;87.03
37904;BME280;23738;50.422;18.758;2023-05-17T04:14:25;98294.42;;;11.04;86.85
37904;BME280;23738;50.422;18.758;2023-05-17T04:16:52;98288.19;;;10.97;86.85
37904;BME280;23738;50.422;18.758;2023-05-17T04:19:20;98292.18;;;10.94;86.75
37904;BME280;23738;50.422;18.758;2023-05-17T04:22:07;98291.91;;;10.92;86.79
37904;BME280;23738;50.422;18.758;2023-05-17T04:24:35;98296.92;;;10.90;87.01
37904;BME280;23738;50.422;18.758;2023-05-17T04:27:02;98301.71;;;10.90;86.70
37904;BME280;23738;50.422;18.758;2023-05-17T04:29:30;98301.88;;;10.90;86.94
37904;BME280;23738;50.422;18.758;2023-05-17T04:31:57;98306.44;;;10.90;87.04
37904;BME280;23738;50.422;18.758;2023-05-17T04:34:25;98314.89;;;10.90;87.10
37904;BME280;23738;50.422;18.758;2023-05-17T04:36:52;98314.85;;;10.89;87.21
37904;BME280;23738;50.422;18.758;2023-05-17T04:39:39;98308.82;;;10.87;86.70
37904;BME280;23738;50.422;18.758;2023-05-17T04:42:47;98305.73;;;10.86;86.87
37904;BME280;23738;50.422;18.758;2023-05-17T04:46:03;98311.18;;;10.86;86.92
37904;BME280;23738;50.422;18.758;2023-05-17T04:49:08;98313.64;;;10.82;86.80
37904;BME280;23738;50.422;18.758;2023-05-17T04:51:36;98313.19;;;10.79;86.76
37904;BME280;23738;50.422;18.758;2023-05-17T04:54:23;98317.91;;;10.82;86.86
37904;BME280;23738;50.422;18.758;2023-05-17T04:57:50;98316.37;;;10.80;87.04
37904;BME280;23738;50.422;18.758;2023-05-17T05:00:18;98310.60;;;10.72;86.73
37904;BME280;23738;50.422;18.758;2023-05-17T05:02:49;98307.56;;;10.69;87.39
37904;BME280;23738;50.422;18.758;2023-05-17T05:05:16;98307.00;;;10.67;87.00
37904;BME280;23738;50.422;18.758;2023-05-17T05:07:45;98303.41;;;10.70;87.03
37904;BME280;23738;50.422;18.758;2023-05-17T05:10:12;98314.75;;;10.77;86.99
37904;BME280;23738;50.422;18.758;2023-05-17T05:12:40;98316.64;;;10.81;87.30
37904;BME280;23738;50.422;18.758;2023-05-17T05:15:09;98317.49;;;10.80;87.13
37904;BME280;23738;50.422;18.758;2023-05-17T05:17:37;98313.33;;;10.77;87.29
37904;BME280;23738;50.422;18.758;2023-05-17T05:20:07;98311.23;;;10.73;87.37
37904;BME280;23738;50.422;18.758;2023-05-17T05:22:34;98321.25;;;10.76;87.74
37904;BME280;23738;50.422;18.758;2023-05-17T05:25:02;98329.87;;;10.74;87.26
37904;BME280;23738;50.422;18.758;2023-05-17T05:27:30;98336.05;;;10.77;87.35
37904;BME280;23738;50.422;18.758;2023-05-17T05:29:58;98340.23;;;10.77;87.45
37904;BME280;23738;50.422;18.758;2023-05-17T05:32:25;98340.80;;;10.74;87.33
37904;BME280;23738;50.422;18.758;2023-05-17T05:34:52;98347.14;;;10.72;87.60
37904;BME280;23738;50.422;18.758;2023-05-17T05:37:20;98348.77;;;10.69;87.31
37904;BME280;23738;50.422;18.758;2023-05-17T05:39:47;98352.66;;;10.71;87.51
37904;BME280;23738;50.422;18.758;2023-05-17T05:42:15;98350.64;;;10.66;87.48
37904;BME280;23738;50.422;18.758;2023-05-17T05:44:42;98353.20;;;10.62;87.77
37904;BME280;23738;50.422;18.758;2023-05-17T05:47:29;98357.36;;;10.58;87.53
37904;BME280;23738;50.422;18.758;2023-05-17T05:50:56;98370.48;;;10.58;87.46
37904;BME280;23738;50.422;18.758;2023-05-17T05:54:03;98375.79;;;10.54;87.48
37904;BME280;23738;50.422;18.758;2023-05-17T05:57:30;98376.93;;;10.49;87.87
37904;BME280;23738;50.422;18.758;2023-05-17T06:00:58;98386.68;;;10.46;87.77
37904;BME280;23738;50.422;18.758;2023-05-17T06:04:25;98394.11;;;10.39;88.53
37904;BME280;23738;50.422;18.758;2023-05-17T06:07:52;98393.84;;;10.31;88.10
37904;BME280;23738;50.422;18.758;2023-05-17T06:11:19;98398.19;;;10.29;87.73
37904;BME280;23738;50.422;18.758;2023-05-17T06:14:46;98416.23;;;10.32;87.72
37904;BME280;23738;50.422;18.758;2023-05-17T06:17:34;98415.09;;;10.29;87.90
37904;BME280;23738;50.422;18.758;2023-05-17T06:20:01;98416.80;;;10.28;88.05
37904;BME280;23738;50.422;18.758;2023-05-17T06:22:49;98427.52;;;10.28;87.70
37904;BME280;23738;50.422;18.758;2023-05-17T06:26:16;98430.27;;;10.34;87.62
37904;BME280;23738;50.422;18.758;2023-05-17T06:29:43;98429.58;;;10.37;87.84
37904;BME280;23738;50.422;18.758;2023-05-17T06:32:51;98432.28;;;10.28;87.89
37904;BME280;23738;50.422;18.758;2023-05-17T06:35:38;98439.05;;;10.25;87.68
37904;BME280;23738;50.422;18.758;2023-05-17T06:39:05;98446.18;;;10.23;87.74
37904;BME280;23738;50.422;18.758;2023-05-17T06:42:32;98449.16;;;10.20;87.89
37904;BME280;23738;50.422;18.758;2023-05-17T06:45:35;98456.85;;;10.15;87.92
37904;BME280;23738;50.422;18.758;2023-05-17T06:48:44;98458.43;;;10.15;87.90
37904;BME280;23738;50.422;18.758;2023-05-17T06:52:11;98464.08;;;10.12;87.68
37904;BME280;23738;50.422;18.758;2023-05-17T06:54:58;98470.53;;;10.14;87.86
37904;BME280;23738;50.422;18.758;2023-05-17T06:58:17;98470.79;;;10.16;88.10
37904;BME280;23738;50.422;18.758;2023-05-17T07:00:44;98476.51;;;10.15;87.79
37904;BME280;23738;50.422;18.758;2023-05-17T07:03:11;98477.23;;;10.15;87.86
37904;BME280;23738;50.422;18.758;2023-05-17T07:05:39;98477.39;;;10.17;87.76
37904;BME280;23738;50.422;18.758;2023-05-17T07:08:06;98479.19;;;10.16;87.82
37904;BME280;23738;50.422;18.758;2023-05-17T07:10:33;98479.89;;;10.17;87.79
37904;BME280;23738;50.422;18.758;2023-05-17T07:13:01;98478.58;;;10.14;88.01
37904;BME280;23738;50.422;18.758;2023-05-17T07:15:48;98483.20;;;10.13;87.98
37904;BME280;23738;50.422;18.758;2023-05-17T07:18:35;98486.25;;;10.11;87.94
37904;BME280;23738;50.422;18.758;2023-05-17T07:21:03;98490.80;;;10.13;87.74
37904;BME280;23738;50.422;18.758;2023-05-17T07:23:30;98494.62;;;10.12;88.33
37904;BME280;23738;50.422;18.758;2023-05-17T07:25:58;98492.54;;;10.09;88.10
37904;BME280;23738;50.422;18.758;2023-05-17T07:28:25;98500.77;;;10.08;88.14
37904;BME280;23738;50.422;18.758;2023-05-17T07:30:52;98501.77;;;10.04;88.60
37904;BME280;23738;50.422;18.758;2023-05-17T07:33:20;98506.39;;;10.02;88.39
37904;BME280;23738;50.422;18.758;2023-05-17T07:35:47;98504.59;;;9.98;88.29
37904;BME280;23738;50.422;18.758;2023-05-17T07:38:14;98511.13;;;9.97;88.63
37904;BME280;23738;50.422;18.758;2023-05-17T07:40:42;98513.20;;;9.94;88.99
37904;BME280;23738;50.422;18.758;2023-05-17T07:43:09;98516.27;;;9.91;88.85
37904;BME280;23738;50.422;18.758;2023-05-17T07:45:36;98513.87;;;9.89;88.86
37904;BME280;23738;50.422;18.758;2023-05-17T07:48:04;98518.95;;;9.89;88.83
37904;BME280;23738;50.422;18.758;2023-05-17T07:50:32;98517.32;;;9.87;88.81
37904;BME280;23738;50.422;18.758;2023-05-17T07:52:59;98514.71;;;9.87;88.75
37904;BME280;23738;50.422;18.758;2023-05-17T07:55:27;98512.87;;;9.88;89.25
37904;BME280;23738;50.422;18.758;2023-05-17T07:57:54;98517.35;;;9.86;89.49
37904;BME280;23738;50.422;18.758;2023-05-17T08:00:23;98510.48;;;9.83;88.97
37904;BME280;23738;50.422;18.758;2023-05-17T08:02:51;98517.00;;;9.88;89.04
37904;BME280;23738;50.422;18.758;2023-05-17T08:05:18;98523.27;;;9.88;89.03
37904;BME280;23738;50.422;18.758;2023-05-17T08:08:05;98521.77;;;9.89;89.18
37904;BME280;23738;50.422;18.758;2023-05-17T08:11:13;98531.31;;;9.86;89.38
37904;BME280;23738;50.422;18.758;2023-05-17T08:13:40;98541.08;;;9.84;88.93
37904;BME280;23738;50.422;18.758;2023-05-17T08:16:09;98546.78;;;9.86;88.85
37904;BME280;23738;50.422;18.758;2023-05-17T08:18:38;98554.59;;;9.89;88.82
37904;BME280;23738;50.422;18.758;2023-05-17T08:21:05;98556.70;;;9.88;88.99
37904;BME280;23738;50.422;18.758;2023-05-17T08:23:32;98554.77;;;9.87;88.99
37904;BME280;23738;50.422;18.758;2023-05-17T08:26:00;98561.73;;;9.90;89.01
37904;BME280;23738;50.422;18.758;2023-05-17T08:28:27;98555.08;;;9.90;88.80
37904;BME280;23738;50.422;18.758;2023-05-17T08:30:55;98562.48;;;9.94;89.16
37904;BME280;23738;50.422;18.758;2023-05-17T08:33:22;98562.80;;;9.91;88.82
37904;BME280;23738;50.422;18.758;2023-05-17T08:35:51;98571.31;;;9.95;88.75
37904;BME280;23738;50.422;18.758;2023-05-17T08:38:40;98567.70;;;9.97;88.96
37904;BME280;23738;50.422;18.758;2023-05-17T08:41:08;98573.21;;;10.01;89.08
37904;BME280;23738;50.422;18.758;2023-05-17T08:43:36;98580.32;;;10.02;89.06
37904;BME280;23738;50.422;18.758;2023-05-17T08:46:04;98583.94;;;10.03;88.82
37904;BME280;23738;50.422;18.758;2023-05-17T08:48:31;98584.45;;;10.04;88.93
37904;BME280;23738;50.422;18.758;2023-05-17T08:51:22;98580.29;;;10.04;88.68
37904;BME280;23738;50.422;18.758;2023-05-17T08:53:49;98581.84;;;10.04;88.74
37904;BME280;23738;50.422;18.758;2023-05-17T08:56:17;98582.39;;;10.02;88.79
37904;BME280;23738;50.422;18.758;2023-05-17T08:58:48;98583.37;;;10.04;89.05
37904;BME280;23738;50.422;18.758;2023-05-17T09:01:33;98580.19;;;10.08;89.03
37904;BME280;23738;50.422;18.758;2023-05-17T09:04:01;98581.50;;;10.09;88.83
37904;BME280;23738;50.422;18.758;2023-05-17T09:06:29;98582.25;;;10.12;88.98
37904;BME280;23738;50.422;18.758;2023-05-17T09:08:58;98583.38;;;10.11;89.14
37904;BME280;23738;50.422;18.758;2023-05-17T09:11:28;98585.73;;;10.10;88.89
37904;BME280;23738;50.422;18.758;2023-05-17T09:13:58;98585.76;;;10.09;88.95
37904;BME280;23738;50.422;18.758;2023-05-17T09:16:28;98580.46;;;10.08;89.13
37904;BME280;23738;50.422;18.758;2023-05-17T09:18:56;98577.15;;;10.01;88.83
37904;BME280;23738;50.422;18.758;2023-05-17T09:21:25;98572.92;;;9.93;89.22
37904;BME280;23738;50.422;18.758;2023-05-17T09:23:53;98577.77;;;9.87;89.24
37904;BME280;23738;50.422;18.758;2023-05-17T09:26:22;98579.90;;;9.86;89.33
37904;BME280;23738;50.422;18.758;2023-05-17T09:28:49;98583.06;;;9.84;89.50
37904;BME280;23738;50.422;18.758;2023-05-17T09:31:19;98576.78;;;9.81;89.34
37904;BME280;23738;50.422;18.758;2023-05-17T09:33:48;98583.68;;;9.87;89.60
37904;BME280;23738;50.422;18.758;2023-05-17T09:36:17;98592.34;;;9.93;89.41
37904;BME280;23738;50.422;18.758;2023-05-17T09:38:52;98601.65;;;9.98;89.64
37904;BME280;23738;50.422;18.758;2023-05-17T09:41:19;98600.80;;;9.98;89.59
37904;BME280;23738;50.422;18.758;2023-05-17T09:43:47;98602.91;;;9.94;89.32
37904;BME280;23738;50.422;18.758;2023-05-17T09:46:15;98612.64;;;9.98;89.35
37904;BME280;23738;50.422;18.758;2023-05-17T09:48:42;98607.25;;;9.97;89.48
37904;BME280;23738;50.422;18.758;2023-05-17T09:51:11;98605.13;;;9.96;89.54
37904;BME280;23738;50.422;18.758;2023-05-17T09:53:38;98607.77;;;9.95;89.22
37904;BME280;23738;50.422;18.758;2023-05-17T09:56:08;98615.86;;;9.97;89.16
37904;BME280;23738;50.422;18.758;2023-05-17T09:58:37;98616.77;;;9.99;89.04
37904;BME280;23738;50.422;18.758;2023-05-17T10:01:05;98625.08;;;10.05;89.09
37904;BME280;23738;50.422;18.758;2023-05-17T10:03:35;98630.73;;;10.11;89.27
37904;BME280;23738;50.422;18.758;2023-05-17T10:06:05;98638.30;;;10.16;89.31
37904;BME280;23738;50.422;18.758;2023-05-17T10:08:34;98642.65;;;10.18;89.28
37904;BME280;23738;50.422;18.758;2023-05-17T10:11:06;98640.35;;;10.20;89.09
37904;BME280;23738;50.422;18.758;2023-05-17T10:13:36;98641.90;;;10.23;88.96
37904;BME280;23738;50.422;18.758;2023-05-17T10:16:07;98640.45;;;10.22;88.83
37904;BME280;23738;50.422;18.758;2023-05-17T10:18:34;98638.21;;;10.17;88.96
37904;BME280;23738;50.422;18.758;2023-05-17T10:21:02;98642.30;;;10.11;88.72
37904;BME280;23738;50.422;18.758;2023-05-17T10:23:31;98643.59;;;10.09;88.58
37904;BME280;23738;50.422;18.758;2023-05-17T10:25:59;98639.48;;;10.08;88.74
37904;BME280;23738;50.422;18.758;2023-05-17T10:28:26;98634.92;;;10.07;88.69
37904;BME280;23738;50.422;18.758;2023-05-17T10:30:55;98642.07;;;10.08;88.91
37904;BME280;23738;50.422;18.758;2023-05-17T10:33:24;98636.73;;;10.03;88.68
37904;BME280;23738;50.422;18.758;2023-05-17T10:35:55;98637.02;;;10.04;88.88
37904;BME280;23738;50.422;18.758;2023-05-17T10:38:22;98635.16;;;10.05;89.00
37904;BME280;23738;50.422;18.758;2023-05-17T10:40:52;98636.52;;;10.08;89.09
37904;BME280;23738;50.422;18.758;2023-05-17T10:43:20;98640.15;;;10.13;89.05
37904;BME280;23738;50.422;18.758;2023-05-17T10:45:49;98642.20;;;10.16;89.18
37904;BME280;23738;50.422;18.758;2023-05-17T10:48:17;98641.86;;;10.13;88.88
37904;BME280;23738;50.422;18.758;2023-05-17T10:50:46;98642.80;;;10.16;89.03
37904;BME280;23738;50.422;18.758;2023-05-17T10:53:13;98652.52;;;10.21;89.06
37904;BME280;23738;50.422;18.758;2023-05-17T10:55:42;98651.08;;;10.23;89.13
37904;BME280;23738;50.422;18.758;2023-05-17T10:58:15;98652.02;;;10.22;89.06
37904;BME280;23738;50.422;18.758;2023-05-17T11:00:44;98655.16;;;10.21;89.24
37904;BME280;23738;50.422;18.758;2023-05-17T11:03:15;98656.27;;;10.19;89.07
37904;BME280;23738;50.422;18.758;2023-05-17T11:05:43;98662.20;;;10.16;88.97
37904;BME280;23738;50.422;18.758;2023-05-17T11:08:15;98669.39;;;10.17;88.93
37904;BME280;23738;50.422;18.758;2023-05-17T11:11:08;98666.70;;;10.16;88.94
37904;BME280;23738;50.422;18.758;2023-05-17T11:13:45;98671.75;;;10.12;88.71
37904;BME280;23738;50.422;18.758;2023-05-17T11:16:15;98677.63;;;10.05;88.73
37904;BME280;23738;50.422;18.758;2023-05-17T11:18:50;98681.77;;;9.98;88.80
37904;BME280;23738;50.422;18.758;2023-05-17T11:21:18;98686.19;;;9.99;88.77
37904;BME280;23738;50.422;18.758;2023-05-17T11:23:47;98690.10;;;10.01;88.99
37904;BME280;23738;50.422;18.758;2023-05-17T11:26:19;98688.36;;;9.97;88.73
37904;BME280;23738;50.422;18.758;2023-05-17T11:28:47;98694.80;;;9.98;88.99
37904;BME280;23738;50.422;18.758;2023-05-17T11:31:15;98692.58;;;9.90;88.75
37904;BME280;23738;50.422;18.758;2023-05-17T11:33:43;98695.84;;;9.88;88.74
37904;BME280;23738;50.422;18.758;2023-05-17T11:36:18;98696.05;;;9.92;88.70
37904;BME280;23738;50.422;18.758;2023-05-17T11:39:07;98694.15;;;9.89;88.55
37904;BME280;23738;50.422;18.758;2023-05-17T11:41:36;98697.83;;;9.85;88.58
37904;BME280;23738;50.422;18.758;2023-05-17T11:44:07;98697.50;;;9.82;88.63
37904;BME280;23738;50.422;18.758;2023-05-17T11:46:37;98700.10;;;9.77;88.72
37904;BME280;23738;50.422;18.758;2023-05-17T11:49:07;98704.65;;;9.83;88.60
37904;BME280;23738;50.422;18.758;2023-05-17T11:51:35;98705.45;;;9.86;88.69
37904;BME280;23738;50.422;18.758;2023-05-17T11:54:03;98710.34;;;9.86;88.79
37904;BME280;23738;50.422;18.758;2023-05-17T11:56:34;98714.30;;;9.86;88.51
37904;BME280;23738;50.422;18.758;2023-05-17T11:59:02;98716.56;;;9.80;88.40
37904;BME280;23738;50.422;18.758;2023-05-17T12:01:41;98720.48;;;9.78;88.53
37904;BME280;23738;50.422;18.758;2023-05-17T12:04:09;98717.94;;;9.85;88.64
37904;BME280;23738;50.422;18.758;2023-05-17T12:06:37;98720.58;;;9.90;88.59
37904;BME280;23738;50.422;18.758;2023-05-17T12:09:05;98723.99;;;9.92;88.72
37904;BME280;23738;50.422;18.758;2023-05-17T12:11:56;98723.95;;;9.94;88.62
37904;BME280;23738;50.422;18.758;2023-05-17T12:14:25;98727.58;;;9.95;88.61
37904;BME280;23738;50.422;18.758;2023-05-17T12:16:54;98733.77;;;9.97;88.53
37904;BME280;23738;50.422;18.758;2023-05-17T12:19:24;98736.29;;;10.00;88.40
37904;BME280;23738;50.422;18.758;2023-05-17T12:22:05;98732.88;;;10.03;88.74
37904;BME280;23738;50.422;18.758;2023-05-17T12:24:38;98742.80;;;10.10;88.49
37904;BME280;23738;50.422;18.758;2023-05-17T12:27:06;98742.20;;;10.10;88.71
37904;BME280;23738;50.422;18.758;2023-05-17T12:29:33;98748.42;;;10.11;88.71
37904;BME280;23738;50.422;18.758;2023-05-17T12:32:01;98747.66;;;10.09;88.37
37904;BME280;23738;50.422;18.758;2023-05-17T12:34:29;98741.96;;;10.02;88.43
37904;BME280;23738;50.422;18.758;2023-05-17T12:36:57;98744.41;;;10.05;88.34
37904;BME280;23738;50.422;18.758;2023-05-17T12:39:25;98754.90;;;10.10;88.67
37904;BME280;23738;50.422;18.758;2023-05-17T12:41:53;98756.43;;;10.05;88.64
37904;BME280;23738;50.422;18.758;2023-05-17T12:44:20;98760.09;;;10.05;88.58
37904;BME280;23738;50.422;18.758;2023-05-17T12:46:48;98761.13;;;10.02;88.61
37904;BME280;23738;50.422;18.758;2023-05-17T12:49:19;98759.17;;;10.01;88.61
37904;BME280;23738;50.422;18.758;2023-05-17T12:51:47;98758.96;;;10.06;88.81
37904;BME280;23738;50.422;18.758;2023-05-17T12:54:25;98763.41;;;10.08;88.62
37904;BME280;23738;50.422;18.758;2023-05-17T12:56:53;98758.99;;;10.05;88.52
37904;BME280;23738;50.422;18.758;2023-05-17T12:59:21;98762.68;;;10.08;88.74
37904;BME280;23738;50.422;18.758;2023-05-17T13:01:52;98760.02;;;10.11;88.83
37904;BME280;23738;50.422;18.758;2023-05-17T13:04:28;98761.34;;;10.15;88.62
37904;BME280;23738;50.422;18.758;2023-05-17T13:06:58;98762.80;;;10.14;88.62
37904;BME280;23738;50.422;18.758;2023-05-17T13:09:27;98765.55;;;10.18;88.51
37904;BME280;23738;50.422;18.758;2023-05-17T13:11:57;98772.94;;;10.21;88.80
37904;BME280;23738;50.422;18.758;2023-05-17T13:14:36;98771.66;;;10.21;88.72
37904;BME280;23738;50.422;18.758;2023-05-17T13:17:04;98772.89;;;10.21;88.53
37904;BME280;23738;50.422;18.758;2023-05-17T13:19:32;98769.92;;;10.19;88.69
37904;BME280;23738;50.422;18.758;2023-05-17T13:22:01;98766.00;;;10.19;88.52
37904;BME280;23738;50.422;18.758;2023-05-17T13:24:32;98772.02;;;10.18;88.38
37904;BME280;23738;50.422;18.758;2023-05-17T13:27:20;98768.98;;;10.16;88.50
37904;BME280;23738;50.422;18.758;2023-05-17T13:30:47;98776.41;;;10.17;88.67
37904;BME280;23738;50.422;18.758;2023-05-17T13:34:14;98780.50;;;10.12;88.50
37904;BME280;23738;50.422;18.758;2023-05-17T13:37:22;98787.77;;;10.13;88.48
37904;BME280;23738;50.422;18.758;2023-05-17T13:40:11;98795.13;;;10.13;88.49
37904;BME280;23738;50.422;18.758;2023-05-17T13:42:39;98797.63;;;10.10;88.48
37904;BME280;23738;50.422;18.758;2023-05-17T13:45:27;98798.80;;;10.10;88.58